createdAt,value
2023-05-22T00:01:56.771Z,19.21
2023-05-22T00:04:24.143Z,19.21
2023-05-22T00:06:51.365Z,19.18
2023-05-22T00:09:18.495Z,19.16
2023-05-22T00:11:45.697Z,19.15
2023-05-22T00:14:16.158Z,19.14
2023-05-22T00:16:43.339Z,19.12
2023-05-22T00:19:13.407Z,19.10
2023-05-22T00:21:40.880Z,19.08
2023-05-22T00:24:08.372Z,19.06
2023-05-22T00:26:35.754Z,19.03
2023-05-22T00:29:03.620Z,19.02
2023-05-22T00:31:30.769Z,18.99
2023-05-22T00:33:59.148Z,18.99
2023-05-22T00:36:26.268Z,18.96
2023-05-22T00:38:53.396Z,18.92
2023-05-22T00:41:22.249Z,18.88
2023-05-22T00:43:50.985Z,18.84
2023-05-22T00:46:21.505Z,18.79
2023-05-22T00:48:49.232Z,18.77
2023-05-22T00:51:16.480Z,18.72
2023-05-22T00:53:44.225Z,18.69
2023-05-22T00:56:12.338Z,18.65
2023-05-22T00:58:39.556Z,18.66
2023-05-22T01:01:09.625Z,18.62
2023-05-22T01:03:46.635Z,18.58
2023-05-22T01:06:15.041Z,18.55
2023-05-22T01:08:42.806Z,18.53
2023-05-22T01:11:25.002Z,18.47
2023-05-22T01:14:01.059Z,18.43
2023-05-22T01:16:46.710Z,18.38
2023-05-22T01:19:47.595Z,18.31
2023-05-22T01:23:03.001Z,18.25
2023-05-22T01:25:45.434Z,18.19
2023-05-22T01:28:45.950Z,18.12
2023-05-22T01:31:18.321Z,18.10
2023-05-22T01:33:51.891Z,18.08
2023-05-22T01:36:22.513Z,18.03
2023-05-22T01:38:52.718Z,18.00
2023-05-22T01:41:21.491Z,17.97
2023-05-22T01:43:48.782Z,17.94
2023-05-22T01:46:16.049Z,17.91
2023-05-22T01:48:43.188Z,17.87
2023-05-22T01:51:23.980Z,17.81
2023-05-22T01:54:06.188Z,17.79
2023-05-22T01:56:40.748Z,17.74
2023-05-22T01:59:13.753Z,17.72
2023-05-22T02:01:41.773Z,17.67
2023-05-22T02:04:10.329Z,17.63
2023-05-22T02:06:38.541Z,17.60
2023-05-22T02:09:06.277Z,17.55
2023-05-22T02:11:34.680Z,17.51
2023-05-22T02:14:02.207Z,17.48
2023-05-22T02:16:30.366Z,17.45
2023-05-22T02:19:05.845Z,17.41
2023-05-22T02:21:36.359Z,17.37
2023-05-22T02:24:03.762Z,17.33
2023-05-22T02:26:31.035Z,17.32
2023-05-22T02:28:58.871Z,17.30
2023-05-22T02:31:26.393Z,17.26
2023-05-22T02:33:53.856Z,17.23
2023-05-22T02:36:21.067Z,17.21
2023-05-22T02:38:48.605Z,17.16
2023-05-22T02:41:15.806Z,17.15
2023-05-22T02:43:43.042Z,17.11
2023-05-22T02:46:10.263Z,17.09
2023-05-22T02:48:37.447Z,17.06
2023-05-22T02:51:04.789Z,17.05
2023-05-22T02:53:33.613Z,17.04
2023-05-22T02:56:01.155Z,17.02
2023-05-22T02:58:28.374Z,17.01
2023-05-22T03:00:55.668Z,16.99
2023-05-22T03:03:24.982Z,16.97
2023-05-22T03:05:58.383Z,16.97
2023-05-22T03:08:28.120Z,16.93
2023-05-22T03:10:59.628Z,16.91
2023-05-22T03:13:26.733Z,16.89
2023-05-22T03:15:53.927Z,16.87
2023-05-22T03:18:21.844Z,16.86
2023-05-22T03:20:49.434Z,16.84
2023-05-22T03:23:16.675Z,16.82
2023-05-22T03:25:43.972Z,16.82
2023-05-22T03:28:11.234Z,16.81
2023-05-22T03:30:38.549Z,16.81
2023-05-22T03:33:05.989Z,16.80
2023-05-22T03:35:33.192Z,16.81
2023-05-22T03:38:00.370Z,16.81
2023-05-22T03:40:27.549Z,16.81
2023-05-22T03:42:54.692Z,16.81
2023-05-22T03:45:21.879Z,16.83
2023-05-22T03:47:49.190Z,16.83
2023-05-22T03:50:16.431Z,16.86
2023-05-22T03:52:43.538Z,16.87
2023-05-22T03:55:10.884Z,16.86
2023-05-22T03:57:38.129Z,16.87
2023-05-22T04:00:12.525Z,16.89
2023-05-22T04:02:40.094Z,16.91
2023-05-22T04:05:09.343Z,16.94
2023-05-22T04:07:37.081Z,16.94
2023-05-22T04:10:05.184Z,16.96
2023-05-22T04:12:32.532Z,16.98
2023-05-22T04:14:59.786Z,17.01
2023-05-22T04:17:32.401Z,17.04
2023-05-22T04:20:00.311Z,17.05
2023-05-22T04:22:27.938Z,17.11
2023-05-22T04:24:55.150Z,17.16
2023-05-22T04:27:22.925Z,17.21
2023-05-22T04:29:50.456Z,17.25
2023-05-22T04:32:18.529Z,17.32
2023-05-22T04:34:47.995Z,17.39
2023-05-22T04:37:16.028Z,17.48
2023-05-22T04:39:43.427Z,17.57
2023-05-22T04:42:10.597Z,17.61
2023-05-22T04:44:38.270Z,17.65
2023-05-22T04:47:08.036Z,17.72
2023-05-22T04:49:35.548Z,17.80
2023-05-22T04:52:04.790Z,17.86
2023-05-22T04:54:32.113Z,17.94
2023-05-22T04:56:59.293Z,17.98
2023-05-22T04:59:26.611Z,18.01
2023-05-22T05:01:53.758Z,18.02
2023-05-22T05:04:20.888Z,18.07
2023-05-22T05:06:48.005Z,18.12
2023-05-22T05:09:15.202Z,18.16
2023-05-22T05:11:42.441Z,18.16
2023-05-22T05:14:09.587Z,18.18
2023-05-22T05:16:36.758Z,18.17
2023-05-22T05:19:04.122Z,18.16
2023-05-22T05:21:31.448Z,18.15
2023-05-22T05:23:58.652Z,18.19
2023-05-22T05:26:27.127Z,18.20
2023-05-22T05:28:54.643Z,18.18
2023-05-22T05:31:21.844Z,18.20
2023-05-22T05:33:49.870Z,18.25
2023-05-22T05:36:17.091Z,18.21
2023-05-22T05:38:44.251Z,18.19
2023-05-22T05:41:11.393Z,18.17
2023-05-22T05:43:38.514Z,18.21
2023-05-22T05:46:06.150Z,18.27
2023-05-22T05:48:33.621Z,18.34
2023-05-22T05:51:00.846Z,18.44
2023-05-22T05:53:28.541Z,18.59
2023-05-22T05:55:55.690Z,18.76
2023-05-22T05:58:22.914Z,18.89
2023-05-22T06:00:50.094Z,19.03
2023-05-22T06:03:17.939Z,19.14
2023-05-22T06:05:49.749Z,19.26
2023-05-22T06:08:17.017Z,19.38
2023-05-22T06:10:44.292Z,19.51
2023-05-22T06:13:11.468Z,19.53
2023-05-22T06:15:38.973Z,19.55
2023-05-22T06:18:06.261Z,19.63
2023-05-22T06:20:33.694Z,19.67
2023-05-22T06:23:00.816Z,19.73
2023-05-22T06:25:29.932Z,19.83
2023-05-22T06:27:57.082Z,19.95
2023-05-22T06:30:38.864Z,20.04
2023-05-22T06:33:10.949Z,20.14
2023-05-22T06:35:38.130Z,20.26
2023-05-22T06:38:05.288Z,20.39
2023-05-22T06:40:32.458Z,20.46
2023-05-22T06:42:59.606Z,20.57
2023-05-22T06:45:26.915Z,20.66
2023-05-22T06:47:54.925Z,20.79
2023-05-22T06:50:22.192Z,20.91
2023-05-22T06:52:49.394Z,20.99
2023-05-22T06:55:16.773Z,21.06
2023-05-22T06:57:44.111Z,21.18
2023-05-22T07:00:12.762Z,21.29
2023-05-22T07:02:40.160Z,21.41
2023-05-22T07:05:08.198Z,21.52
2023-05-22T07:07:35.926Z,21.69
2023-05-22T07:10:03.408Z,21.73
2023-05-22T07:12:30.717Z,21.76
2023-05-22T07:14:59.967Z,21.81
2023-05-22T07:17:27.435Z,21.90
2023-05-22T07:19:54.672Z,22.03
2023-05-22T07:22:46.989Z,22.15
2023-05-22T07:25:14.173Z,22.34
2023-05-22T07:27:41.308Z,22.50
2023-05-22T07:30:09.056Z,22.53
2023-05-22T07:32:36.296Z,22.49
2023-05-22T07:35:03.932Z,22.47
2023-05-22T07:37:31.733Z,22.58
2023-05-22T07:39:59.027Z,22.74
2023-05-22T07:42:27.289Z,22.90
2023-05-22T07:44:54.456Z,23.01
2023-05-22T07:47:21.642Z,23.08
2023-05-22T07:49:48.792Z,23.21
2023-05-22T07:52:15.985Z,23.27
2023-05-22T07:54:45.184Z,23.36
2023-05-22T07:57:12.998Z,23.53
2023-05-22T07:59:40.136Z,23.68
2023-05-22T08:02:09.984Z,23.88
2023-05-22T08:04:37.369Z,23.98
2023-05-22T08:07:04.838Z,24.10
2023-05-22T08:09:32.062Z,24.13
2023-05-22T08:11:59.202Z,24.23
2023-05-22T08:14:26.375Z,24.37
2023-05-22T08:16:54.947Z,24.48
2023-05-22T08:19:22.272Z,24.53
2023-05-22T08:21:49.563Z,24.59
2023-05-22T08:24:16.753Z,24.66
2023-05-22T08:26:44.012Z,24.84
2023-05-22T08:29:11.544Z,24.97
2023-05-22T08:31:38.767Z,25.11
2023-05-22T08:34:07.137Z,25.26
2023-05-22T08:36:34.482Z,25.31
2023-05-22T08:39:01.958Z,25.28
2023-05-22T08:41:29.621Z,25.22
2023-05-22T08:43:57.088Z,25.18
2023-05-22T08:46:28.239Z,25.22
2023-05-22T08:48:57.128Z,25.17
2023-05-22T08:51:28.636Z,25.16
2023-05-22T08:53:58.894Z,25.31
2023-05-22T08:56:28.571Z,25.60
2023-05-22T08:58:57.553Z,25.98
2023-05-22T09:01:24.884Z,26.21
2023-05-22T09:03:52.431Z,26.37
2023-05-22T09:06:19.604Z,26.36
2023-05-22T09:08:46.786Z,26.35
2023-05-22T09:11:13.975Z,26.40
2023-05-22T09:13:41.507Z,26.50
2023-05-22T09:16:12.721Z,26.65
2023-05-22T09:18:40.643Z,26.91
2023-05-22T09:21:21.612Z,27.08
2023-05-22T09:23:59.870Z,27.32
2023-05-22T09:26:29.110Z,27.46
2023-05-22T09:28:57.274Z,27.46
2023-05-22T09:31:24.501Z,27.44
2023-05-22T09:33:51.730Z,27.51
2023-05-22T09:36:18.868Z,27.56
2023-05-22T09:38:46.234Z,27.53
2023-05-22T09:41:13.602Z,27.52
2023-05-22T09:43:49.735Z,27.59
2023-05-22T09:46:17.322Z,27.57
2023-05-22T09:48:44.676Z,27.45
2023-05-22T09:51:12.975Z,27.46
2023-05-22T09:53:41.856Z,27.57
2023-05-22T09:56:14.695Z,27.45
2023-05-22T09:58:45.308Z,27.43
2023-05-22T10:01:14.047Z,27.49
2023-05-22T10:03:41.841Z,27.69
2023-05-22T10:06:12.192Z,27.85
2023-05-22T10:08:44.139Z,27.97
2023-05-22T10:11:11.917Z,27.89
2023-05-22T10:13:40.071Z,27.93
2023-05-22T10:16:07.853Z,28.00
2023-05-22T10:18:35.930Z,27.94
2023-05-22T10:21:03.491Z,27.97
2023-05-22T10:23:31.084Z,27.98
2023-05-22T10:25:58.358Z,28.00
2023-05-22T10:28:29.470Z,28.07
2023-05-22T10:31:02.083Z,28.14
2023-05-22T10:33:34.282Z,28.21
2023-05-22T10:36:22.244Z,28.24
2023-05-22T10:39:34.316Z,28.27
2023-05-22T10:42:01.691Z,28.25
2023-05-22T10:44:29.264Z,28.32
2023-05-22T10:46:56.446Z,28.46
2023-05-22T10:49:23.918Z,28.60
2023-05-22T10:51:57.344Z,28.55
2023-05-22T10:54:43.916Z,28.52
2023-05-22T10:57:17.158Z,28.49
2023-05-22T10:59:47.823Z,28.47
2023-05-22T11:02:22.588Z,28.61
2023-05-22T11:04:49.972Z,28.62
2023-05-22T11:07:17.293Z,28.57
2023-05-22T11:09:47.680Z,28.67
2023-05-22T11:12:24.867Z,28.75
2023-05-22T11:14:56.288Z,28.83
2023-05-22T11:17:30.721Z,28.87
2023-05-22T11:20:18.539Z,29.05
2023-05-22T11:23:05.618Z,29.00
2023-05-22T11:25:33.840Z,29.09
2023-05-22T11:28:05.690Z,29.27
2023-05-22T11:30:34.328Z,29.37
2023-05-22T11:33:02.246Z,29.35
2023-05-22T11:35:29.537Z,29.29
2023-05-22T11:37:56.902Z,29.28
2023-05-22T11:40:25.647Z,29.33
2023-05-22T11:42:53.728Z,29.45
2023-05-22T11:45:21.604Z,29.50
2023-05-22T11:47:49.088Z,29.53
2023-05-22T11:50:22.674Z,29.71
2023-05-22T11:52:53.938Z,29.81
2023-05-22T11:55:21.065Z,29.80
2023-05-22T11:57:48.426Z,29.78
2023-05-22T12:00:16.297Z,29.69
2023-05-22T12:02:47.555Z,29.79
2023-05-22T12:05:16.500Z,29.90
2023-05-22T12:07:44.003Z,29.94
2023-05-22T12:10:11.481Z,30.09
2023-05-22T12:12:39.033Z,30.25
2023-05-22T12:15:07.100Z,30.37
2023-05-22T12:17:37.572Z,30.52
2023-05-22T12:20:05.791Z,30.51
2023-05-22T12:22:33.067Z,30.70
2023-05-22T12:25:00.300Z,30.77
2023-05-22T12:27:33.193Z,30.69
2023-05-22T12:30:10.484Z,30.63
2023-05-22T12:32:40.015Z,30.73
2023-05-22T12:35:14.376Z,30.79
2023-05-22T12:37:48.309Z,31.05
2023-05-22T12:40:15.890Z,31.18
2023-05-22T12:42:44.730Z,31.29
2023-05-22T12:45:13.153Z,31.37
2023-05-22T12:47:40.442Z,31.08
2023-05-22T12:50:08.274Z,31.13
2023-05-22T12:52:35.962Z,30.94
2023-05-22T12:55:03.215Z,30.95
2023-05-22T12:57:30.497Z,31.05
2023-05-22T12:59:57.641Z,31.00
2023-05-22T13:02:24.860Z,31.16
2023-05-22T13:04:52.086Z,31.34
2023-05-22T13:07:19.270Z,31.42
2023-05-22T13:09:48.210Z,31.65
2023-05-22T13:12:15.502Z,31.85
2023-05-22T13:14:42.703Z,32.07
2023-05-22T13:17:10.569Z,32.18
2023-05-22T13:19:38.264Z,32.28
2023-05-22T13:22:07.360Z,32.38
2023-05-22T13:24:34.535Z,32.63
2023-05-22T13:27:11.099Z,32.95
2023-05-22T13:29:38.265Z,33.04
2023-05-22T13:32:05.895Z,33.15
2023-05-22T13:39:27.717Z,33.22
2023-05-22T13:41:54.994Z,33.29
2023-05-22T13:44:22.305Z,33.23
2023-05-22T13:46:49.519Z,33.14
2023-05-22T13:49:16.847Z,33.31
2023-05-22T13:51:44.377Z,33.31
2023-05-22T13:54:11.692Z,33.23
2023-05-22T13:56:38.963Z,33.44
2023-05-22T13:59:09.174Z,33.65
2023-05-22T14:01:36.748Z,34.10
2023-05-22T14:04:04.645Z,34.53
2023-05-22T14:06:31.989Z,34.86
2023-05-22T14:08:59.678Z,34.80
2023-05-22T14:11:27.433Z,34.88
2023-05-22T14:13:54.634Z,35.04
2023-05-22T14:16:22.325Z,35.10
2023-05-22T14:18:49.599Z,35.05
2023-05-22T14:21:18.661Z,35.29
2023-05-22T14:28:36.408Z,38.19
2023-05-22T14:31:03.867Z,37.23
2023-05-22T14:33:31.196Z,36.38
2023-05-22T14:35:58.431Z,35.70
2023-05-22T14:38:26.287Z,35.01
2023-05-22T14:40:53.548Z,34.42
2023-05-22T14:43:20.837Z,33.89
2023-05-22T14:45:48.264Z,33.49
2023-05-22T14:48:15.925Z,33.14
2023-05-22T14:50:43.168Z,32.97
2023-05-22T14:53:10.466Z,32.94
2023-05-22T14:55:38.079Z,32.85
2023-05-22T14:58:05.590Z,32.76
2023-05-22T15:00:32.804Z,32.61
2023-05-22T15:03:02.685Z,32.41
2023-05-22T15:05:30.170Z,32.36
2023-05-22T15:07:58.544Z,32.35
2023-05-22T15:10:26.203Z,32.34
2023-05-22T15:12:53.638Z,32.26
2023-05-22T15:15:21.140Z,32.22
2023-05-22T15:17:48.405Z,32.26
2023-05-22T15:20:15.583Z,32.21
2023-05-22T15:22:43.107Z,32.14
2023-05-22T15:25:12.329Z,31.87
2023-05-22T15:27:39.825Z,31.83
2023-05-22T15:30:09.564Z,31.74
2023-05-22T15:32:37.221Z,31.72
2023-05-22T15:35:05.740Z,31.80
2023-05-22T15:37:33.925Z,31.83
2023-05-22T15:40:01.795Z,31.80
2023-05-22T15:42:29.934Z,31.59
2023-05-22T15:44:58.872Z,31.51
2023-05-22T15:47:26.236Z,31.46
2023-05-22T15:49:53.496Z,31.33
2023-05-22T15:52:23.332Z,31.08
2023-05-22T15:54:50.667Z,30.87
2023-05-22T15:57:17.857Z,30.71
2023-05-22T15:59:47.322Z,30.57
2023-05-22T16:02:14.879Z,30.35
2023-05-22T16:04:42.238Z,30.01
2023-05-22T16:07:09.387Z,29.79
2023-05-22T16:09:36.573Z,29.70
2023-05-22T16:12:04.530Z,29.77
2023-05-22T16:14:31.902Z,29.95
2023-05-22T16:16:59.184Z,30.01
2023-05-22T16:19:33.850Z,30.06
2023-05-22T16:22:01.319Z,30.06
2023-05-22T16:24:28.536Z,29.99
2023-05-22T16:26:56.661Z,29.88
2023-05-22T16:29:23.849Z,29.70
2023-05-22T16:31:52.140Z,29.45
2023-05-22T16:34:21.768Z,29.22
2023-05-22T16:36:49.005Z,29.05
2023-05-22T16:39:16.289Z,28.85
2023-05-22T16:41:43.610Z,28.65
2023-05-22T16:44:10.781Z,28.50
2023-05-22T16:46:37.968Z,28.31
2023-05-22T16:49:05.765Z,28.20
2023-05-22T16:51:33.120Z,28.12
2023-05-22T16:54:00.546Z,28.00
2023-05-22T16:56:28.174Z,27.94
2023-05-22T16:58:57.980Z,27.87
2023-05-22T17:01:27.325Z,27.72
2023-05-22T17:03:54.759Z,27.46
2023-05-22T17:06:22.722Z,27.29
2023-05-22T17:08:49.961Z,27.18
2023-05-22T17:11:17.218Z,27.10
2023-05-22T17:13:44.488Z,27.01
2023-05-22T17:16:11.718Z,26.95
2023-05-22T17:18:38.868Z,26.89
2023-05-22T17:21:09.077Z,26.84
2023-05-22T17:23:37.261Z,26.74
2023-05-22T17:26:04.743Z,26.66
2023-05-22T17:28:32.028Z,26.54
2023-05-22T17:30:59.398Z,26.42
2023-05-22T17:33:26.694Z,26.26
2023-05-22T17:35:53.961Z,26.10
2023-05-22T17:38:21.971Z,25.96
2023-05-22T17:40:49.516Z,25.81
2023-05-22T17:43:19.016Z,25.67
2023-05-22T17:45:49.887Z,25.56
2023-05-22T17:48:23.285Z,25.43
2023-05-22T17:50:50.768Z,25.30
2023-05-22T17:53:19.630Z,25.22
2023-05-22T17:55:48.337Z,25.12
2023-05-22T17:58:16.651Z,25.05
2023-05-22T18:00:43.883Z,24.98
2023-05-22T18:03:12.194Z,24.89
2023-05-22T18:05:39.567Z,24.75
2023-05-22T18:14:50.509Z,24.34
2023-05-22T18:17:17.809Z,24.25
2023-05-22T18:19:45.104Z,24.19
2023-05-22T18:22:12.660Z,24.11
2023-05-22T18:24:40.665Z,24.05
2023-05-22T18:27:07.915Z,23.98
2023-05-22T18:29:35.389Z,23.91
2023-05-22T18:32:03.024Z,23.82
2023-05-22T18:34:31.425Z,23.74
2023-05-22T18:36:59.604Z,23.65
2023-05-22T18:39:26.894Z,23.56
2023-05-22T18:41:54.154Z,23.47
2023-05-22T18:44:23.211Z,23.38
2023-05-22T18:46:50.623Z,23.30
2023-05-22T18:49:17.816Z,23.20
2023-05-22T18:51:45.097Z,23.13
2023-05-22T18:54:12.283Z,23.03
2023-05-22T18:56:39.522Z,22.96
2023-05-22T18:59:06.903Z,22.90
2023-05-22T19:01:34.213Z,22.81
2023-05-22T19:04:01.455Z,22.72
2023-05-22T19:06:28.995Z,22.66
2023-05-22T19:08:56.183Z,22.59
2023-05-22T19:11:23.366Z,22.51
2023-05-22T19:13:50.789Z,22.43
2023-05-22T19:16:18.112Z,22.36
2023-05-22T19:18:45.447Z,22.30
2023-05-22T19:21:12.880Z,22.24
2023-05-22T19:23:40.187Z,22.18
2023-05-22T19:26:07.414Z,22.13
2023-05-22T19:28:34.641Z,22.09
2023-05-22T19:31:03.091Z,22.02
2023-05-22T19:33:33.719Z,21.98
2023-05-22T19:36:02.291Z,21.92
2023-05-22T19:38:31.023Z,21.86
2023-05-22T19:40:58.288Z,21.82
2023-05-22T19:43:25.693Z,21.78
2023-05-22T19:45:53.474Z,21.70
2023-05-22T19:48:21.377Z,21.61
2023-05-22T19:50:48.537Z,21.53
2023-05-22T19:53:15.950Z,21.42
2023-05-22T19:55:43.159Z,21.31
2023-05-22T19:58:10.429Z,21.20
2023-05-22T20:00:38.198Z,21.14
2023-05-22T20:03:05.857Z,21.04
2023-05-22T20:05:33.274Z,20.99
2023-05-22T20:08:00.650Z,20.90
2023-05-22T20:10:27.905Z,20.83
2023-05-22T20:12:55.235Z,20.78
2023-05-22T20:15:24.004Z,20.69
2023-05-22T20:17:52.928Z,20.65
2023-05-22T20:20:20.755Z,20.60
2023-05-22T20:22:48.204Z,20.55
2023-05-22T20:25:15.518Z,20.48
2023-05-22T20:27:42.853Z,20.41
2023-05-22T20:30:11.483Z,20.38
2023-05-22T20:32:46.661Z,20.33
2023-05-22T20:35:14.067Z,20.27
2023-05-22T20:37:41.586Z,20.23
2023-05-22T20:40:12.959Z,20.17
2023-05-22T20:42:42.496Z,20.14
2023-05-22T20:45:14.586Z,20.07
2023-05-22T20:47:42.569Z,20.02
2023-05-22T20:50:10.033Z,19.98
2023-05-22T20:52:37.357Z,19.94
2023-05-22T20:55:05.206Z,19.90
2023-05-22T20:57:32.473Z,19.86
2023-05-22T20:59:59.742Z,19.82
2023-05-22T21:02:26.961Z,19.79
2023-05-22T21:04:54.185Z,19.76
2023-05-22T21:07:21.485Z,19.72
2023-05-22T21:09:48.657Z,19.69
2023-05-22T21:12:15.830Z,19.66
2023-05-22T21:14:44.075Z,19.64
2023-05-22T21:17:12.128Z,19.61
2023-05-22T21:19:39.529Z,19.57
2023-05-22T21:22:06.737Z,19.55
2023-05-22T21:24:33.896Z,19.52
2023-05-22T21:27:01.096Z,19.49
2023-05-22T21:29:28.297Z,19.45
2023-05-22T21:31:55.502Z,19.43
2023-05-22T21:34:22.977Z,19.40
2023-05-22T21:36:50.727Z,19.38
2023-05-22T21:39:17.920Z,19.36
2023-05-22T21:41:45.631Z,19.33
2023-05-22T21:44:12.953Z,19.31
2023-05-22T21:46:40.387Z,19.28
2023-05-22T21:49:09.524Z,19.26
2023-05-22T21:51:37.004Z,19.23
2023-05-22T21:54:04.363Z,19.21
2023-05-22T21:56:31.610Z,19.18
2023-05-22T21:58:59.184Z,19.15
2023-05-22T22:01:26.387Z,19.14
2023-05-22T22:03:53.810Z,19.13
2023-05-22T22:06:21.015Z,19.10
2023-05-22T22:08:48.188Z,19.08
2023-05-22T22:11:15.412Z,19.06
2023-05-22T22:13:42.633Z,19.05
2023-05-22T22:16:09.984Z,19.04
2023-05-22T22:18:37.231Z,19.05
2023-05-22T22:21:04.663Z,19.05
2023-05-22T22:23:31.835Z,19.02
2023-05-22T22:25:59.060Z,19.01
2023-05-22T22:28:26.227Z,19.00
2023-05-22T22:30:55.194Z,18.97
2023-05-22T22:33:22.890Z,18.94
2023-05-22T22:35:51.324Z,18.93
2023-05-22T22:38:18.516Z,18.90
2023-05-22T22:40:45.740Z,18.87
2023-05-22T22:43:12.990Z,18.85
2023-05-22T22:45:40.412Z,18.82
2023-05-22T22:48:07.954Z,18.78
2023-05-22T22:50:35.173Z,18.76
2023-05-22T22:53:02.317Z,18.72
2023-05-22T22:55:29.628Z,18.70
2023-05-22T22:57:56.972Z,18.65
2023-05-22T23:00:24.608Z,18.62
2023-05-22T23:02:51.855Z,18.61
2023-05-22T23:05:20.546Z,18.58
2023-05-22T23:07:48.298Z,18.55
2023-05-22T23:10:15.648Z,18.53
2023-05-22T23:12:42.934Z,18.47
2023-05-22T23:15:11.342Z,18.45
2023-05-22T23:17:38.816Z,18.41
2023-05-22T23:20:06.934Z,18.40
2023-05-22T23:22:34.316Z,18.36
2023-05-22T23:25:01.449Z,18.34
2023-05-22T23:27:28.753Z,18.30
2023-05-22T23:29:55.969Z,18.27
2023-05-22T23:32:23.128Z,18.23
2023-05-22T23:34:50.436Z,18.22
2023-05-22T23:37:17.581Z,18.20
2023-05-22T23:39:44.773Z,18.18
2023-05-22T23:42:12.104Z,18.16
2023-05-22T23:44:39.581Z,18.13
2023-05-22T23:47:07.185Z,18.10
2023-05-22T23:49:34.400Z,18.08
2023-05-22T23:52:01.637Z,18.07
2023-05-22T23:54:28.766Z,18.06
2023-05-22T23:56:56.063Z,18.05
2023-05-22T23:59:23.188Z,18.04
